sensor_id;sensor_type;location;lat;lon;timestamp;pressure;altitude;pressure_sealevel;temperature;humidity
24610;BME280;12758;47.890;11.694;2024-03-02T00:00:19;92699.88;;;21.81;nan
24610;BME280;12758;47.890;11.694;2024-03-02T00:02:47;92692.81;;;21.80;nan
24610;BME280;12758;47.890;11.694;2024-03-02T00:05:16;92690.03;;;21.80;nan
24610;BME280;12758;47.890;11.694;2024-03-02T00:07:44;92698.31;;;21.80;nan
24610;BME280;12758;47.890;11.694;2024-03-02T00:10:16;92693.56;;;21.81;nan
24610;BME280;12758;47.890;11.694;2024-03-02T00:12:43;92696.34;;;21.81;nan
24610;BME280;12758;47.890;11.694;2024-03-02T00:18:05;92682.94;;;21.79;nan
24610;BME280;12758;47.890;11.694;2024-03-02T00:20:32;92687.28;;;21.80;nan
24610;BME280;12758;47.890;11.694;2024-03-02T00:23:02;92689.69;;;21.78;nan
24610;BME280;12758;47.890;11.694;2024-03-02T00:25:37;92680.19;;;21.79;nan
24610;BME280;12758;47.890;11.694;2024-03-02T00:28:05;92685.69;;;21.79;nan
24610;BME280;12758;47.890;11.694;2024-03-02T00:30:46;92684.94;;;21.79;nan
24610;BME280;12758;47.890;11.694;2024-03-02T00:33:17;92678.63;;;21.78;nan
24610;BME280;12758;47.890;11.694;2024-03-02T00:35:45;92671.88;;;21.79;nan
24610;BME280;12758;47.890;11.694;2024-03-02T00:38:12;92673.09;;;21.78;nan
24610;BME280;12758;47.890;11.694;2024-03-02T00:40:41;92667.59;;;21.78;nan
24610;BME280;12758;47.890;11.694;2024-03-02T00:43:11;92670.34;;;21.78;nan
24610;BME280;12758;47.890;11.694;2024-03-02T00:45:49;92662.06;;;21.78;nan
24610;BME280;12758;47.890;11.694;2024-03-02T00:48:16;92662.06;;;21.78;nan
24610;BME280;12758;47.890;11.694;2024-03-02T00:50:43;92663.59;;;21.79;nan
24610;BME280;12758;47.890;11.694;2024-03-02T00:53:11;92658.06;;;21.79;nan
24610;BME280;12758;47.890;11.694;2024-03-02T00:55:38;92656.53;;;21.78;nan
24610;BME280;12758;47.890;11.694;2024-03-02T00:58:11;92646.69;;;21.77;nan
24610;BME280;12758;47.890;11.694;2024-03-02T04:32:48;92637.69;;;21.73;nan
24610;BME280;12758;47.890;11.694;2024-03-02T04:35:15;92637.69;;;21.73;nan
24610;BME280;12758;47.890;11.694;2024-03-02T04:37:42;92636.91;;;21.73;nan
24610;BME280;12758;47.890;11.694;2024-03-02T04:40:10;92638.50;;;21.74;nan
24610;BME280;12758;47.890;11.694;2024-03-02T04:42:36;92640.03;;;21.75;nan
24610;BME280;12758;47.890;11.694;2024-03-02T04:45:04;92636.50;;;21.74;nan
24610;BME280;12758;47.890;11.694;2024-03-02T04:47:31;92642.81;;;21.75;nan
24610;BME280;12758;47.890;11.694;2024-03-02T04:49:59;92639.25;;;21.74;nan
24610;BME280;12758;47.890;11.694;2024-03-02T04:52:25;92645.56;;;21.75;nan
24610;BME280;12758;47.890;11.694;2024-03-02T04:54:52;92646.34;;;21.75;nan
24610;BME280;12758;47.890;11.694;2024-03-02T04:57:54;92653.41;;;21.76;nan
24610;BME280;12758;47.890;11.694;2024-03-02T05:00:21;92656.97;;;21.77;nan
24610;BME280;12758;47.890;11.694;2024-03-02T05:02:48;92647.88;;;21.76;nan
24610;BME280;12758;47.890;11.694;2024-03-02T05:05:16;92658.94;;;21.76;nan
24610;BME280;12758;47.890;11.694;2024-03-02T05:07:43;92654.63;;;21.75;nan
24610;BME280;12758;47.890;11.694;2024-03-02T05:10:10;92656.97;;;21.77;nan
24610;BME280;12758;47.890;11.694;2024-03-02T05:12:37;92662.91;;;21.75;nan
24610;BME280;12758;47.890;11.694;2024-03-02T05:15:22;92657.38;;;21.75;nan
24610;BME280;12758;47.890;11.694;2024-03-02T05:17:49;92662.13;;;21.75;nan
24610;BME280;12758;47.890;11.694;2024-03-02T05:20:17;92662.91;;;21.75;nan
24610;BME280;12758;47.890;11.694;2024-03-02T05:22:44;92664.13;;;21.74;nan
24610;BME280;12758;47.890;11.694;2024-03-02T05:25:10;92672.41;;;21.74;nan
24610;BME280;12758;47.890;11.694;2024-03-02T05:27:37;92673.19;;;21.75;nan
24610;BME280;12758;47.890;11.694;2024-03-02T05:30:05;92667.66;;;21.75;nan
24610;BME280;12758;47.890;11.694;2024-03-02T05:32:33;92679.13;;;21.73;nan
24610;BME280;12758;47.890;11.694;2024-03-02T05:34:59;92673.59;;;21.73;nan
24610;BME280;12758;47.890;11.694;2024-03-02T05:37:27;92677.16;;;21.74;nan
24610;BME280;12758;47.890;11.694;2024-03-02T05:39:54;92679.13;;;21.73;nan
24610;BME280;12758;47.890;11.694;2024-03-02T05:42:21;92681.88;;;21.73;nan
24610;BME280;12758;47.890;11.694;2024-03-02T05:44:47;92681.13;;;21.73;nan
24610;BME280;12758;47.890;11.694;2024-03-02T05:47:14;92692.94;;;21.73;nan
24610;BME280;12758;47.890;11.694;2024-03-02T05:49:41;92694.94;;;21.73;nan
24610;BME280;12758;47.890;11.694;2024-03-02T05:52:08;92686.63;;;21.73;nan
24610;BME280;12758;47.890;11.694;2024-03-02T05:54:37;92696.91;;;21.72;nan
24610;BME280;12758;47.890;11.694;2024-03-02T05:57:04;92691.38;;;21.72;nan
24610;BME280;12758;47.890;11.694;2024-03-02T05:59:52;92693.38;;;21.72;nan
24610;BME280;12758;47.890;11.694;2024-03-02T06:02:19;92687.06;;;21.71;nan
24610;BME280;12758;47.890;11.694;2024-03-02T06:04:46;92691.38;;;21.72;nan
24610;BME280;12758;47.890;11.694;2024-03-02T06:07:12;92685.09;;;21.72;nan
24610;BME280;12758;47.890;11.694;2024-03-02T06:09:40;92691.38;;;21.72;nan
24610;BME280;12758;47.890;11.694;2024-03-02T06:12:07;92690.16;;;21.73;nan
24610;BME280;12758;47.890;11.694;2024-03-02T06:14:34;92692.94;;;21.73;nan
24610;BME280;12758;47.890;11.694;2024-03-02T06:17:01;92688.63;;;21.72;nan
24610;BME280;12758;47.890;11.694;2024-03-02T06:19:28;92690.16;;;21.73;nan
24610;BME280;12758;47.890;11.694;2024-03-02T06:21:54;92695.69;;;21.73;nan
24610;BME280;12758;47.890;11.694;2024-03-02T06:24:21;92689.84;;;21.71;nan
24610;BME280;12758;47.890;11.694;2024-03-02T06:26:49;92691.38;;;21.72;nan
24610;BME280;12758;47.890;11.694;2024-03-02T06:29:16;92694.16;;;21.72;nan
24610;BME280;12758;47.890;11.694;2024-03-02T06:31:43;92692.94;;;21.73;nan
24610;BME280;12758;47.890;11.694;2024-03-02T06:34:09;92690.16;;;21.73;nan
24610;BME280;12758;47.890;11.694;2024-03-02T06:36:36;92692.94;;;21.73;nan
24610;BME280;12758;47.890;11.694;2024-03-02T06:39:05;92690.16;;;21.73;nan
24610;BME280;12758;47.890;11.694;2024-03-02T06:41:32;92686.22;;;21.74;nan
24610;BME280;12758;47.890;11.694;2024-03-02T06:44:00;92687.00;;;21.75;nan
24610;BME280;12758;47.890;11.694;2024-03-02T06:46:27;92689.00;;;21.74;nan
24610;BME280;12758;47.890;11.694;2024-03-02T06:48:54;92683.47;;;21.74;nan
24610;BME280;12758;47.890;11.694;2024-03-02T06:51:21;92689.00;;;21.74;nan
24610;BME280;12758;47.890;11.694;2024-03-02T06:53:48;92686.22;;;21.74;nan
24610;BME280;12758;47.890;11.694;2024-03-02T06:56:14;92689.75;;;21.75;nan
24610;BME280;12758;47.890;11.694;2024-03-02T06:58:44;92689.00;;;21.74;nan
24610;BME280;12758;47.890;11.694;2024-03-02T07:01:12;92687.00;;;21.75;nan
24610;BME280;12758;47.890;11.694;2024-03-02T07:03:39;92679.13;;;21.73;nan
24610;BME280;12758;47.890;11.694;2024-03-02T07:06:06;92689.00;;;21.74;nan
24610;BME280;12758;47.890;11.694;2024-03-02T07:08:33;92689.00;;;21.74;nan
24610;BME280;12758;47.890;11.694;2024-03-02T07:11:00;92688.22;;;21.74;nan
24610;BME280;12758;47.890;11.694;2024-03-02T07:13:27;92687.41;;;21.73;nan
24610;BME280;12758;47.890;11.694;2024-03-02T07:15:53;92687.41;;;21.73;nan
24610;BME280;12758;47.890;11.694;2024-03-02T07:18:49;92683.88;;;21.73;nan
24610;BME280;12758;47.890;11.694;2024-03-02T07:21:17;92692.94;;;21.73;nan
24610;BME280;12758;47.890;11.694;2024-03-02T07:23:44;92681.88;;;21.73;nan
24610;BME280;12758;47.890;11.694;2024-03-02T07:26:11;92681.88;;;21.73;nan
24610;BME280;12758;47.890;11.694;2024-03-02T07:28:38;92679.13;;;21.73;nan
24610;BME280;12758;47.890;11.694;2024-03-02T07:31:05;92681.88;;;21.73;nan
24610;BME280;12758;47.890;11.694;2024-03-02T07:33:32;92681.88;;;21.73;nan
24610;BME280;12758;47.890;11.694;2024-03-02T07:36:01;92687.41;;;21.73;nan
24610;BME280;12758;47.890;11.694;2024-03-02T07:38:28;92684.66;;;21.73;nan
24610;BME280;12758;47.890;11.694;2024-03-02T07:40:55;92680.69;;;21.74;nan
24610;BME280;12758;47.890;11.694;2024-03-02T07:43:22;92689.00;;;21.74;nan
24610;BME280;12758;47.890;11.694;2024-03-02T07:45:49;92685.00;;;21.75;nan
24610;BME280;12758;47.890;11.694;2024-03-02T07:48:16;92683.47;;;21.74;nan
24610;BME280;12758;47.890;11.694;2024-03-02T07:50:42;92690.53;;;21.75;nan
24610;BME280;12758;47.890;11.694;2024-03-02T07:53:11;92696.06;;;21.75;nan
24610;BME280;12758;47.890;11.694;2024-03-02T07:55:38;92690.53;;;21.75;nan
24610;BME280;12758;47.890;11.694;2024-03-02T07:58:06;92697.59;;;21.76;nan
24610;BME280;12758;47.890;11.694;2024-03-02T08:00:32;92696.84;;;21.76;nan
24610;BME280;12758;47.890;11.694;2024-03-02T08:03:00;92696.06;;;21.75;nan
24610;BME280;12758;47.890;11.694;2024-03-02T08:05:27;92700.38;;;21.76;nan
24610;BME280;12758;47.890;11.694;2024-03-02T08:07:53;92701.59;;;21.75;nan
24610;BME280;12758;47.890;11.694;2024-03-02T08:10:21;92700.38;;;21.76;nan
24610;BME280;12758;47.890;11.694;2024-03-02T08:12:48;92696.41;;;21.77;nan
24610;BME280;12758;47.890;11.694;2024-03-02T08:15:15;92697.97;;;21.78;nan
24610;BME280;12758;47.890;11.694;2024-03-02T08:17:42;92700.72;;;21.78;nan
24610;BME280;12758;47.890;11.694;2024-03-02T08:20:14;92691.22;;;21.79;nan
24610;BME280;12758;47.890;11.694;2024-03-02T08:22:40;92700.66;;;21.82;nan
24610;BME280;12758;47.890;11.694;2024-03-02T08:25:08;92693.13;;;21.82;nan
24610;BME280;12758;47.890;11.694;2024-03-02T08:27:36;92708.53;;;21.83;nan
24610;BME280;12758;47.890;11.694;2024-03-02T08:30:04;92703.34;;;21.85;nan
24610;BME280;12758;47.890;11.694;2024-03-02T08:32:32;92710.44;;;21.86;nan
24610;BME280;12758;47.890;11.694;2024-03-02T08:34:58;92710.75;;;21.89;nan
24610;BME280;12758;47.890;11.694;2024-03-02T08:37:25;92713.53;;;21.89;nan
24610;BME280;12758;47.890;11.694;2024-03-02T08:39:52;92708.38;;;21.91;nan
24610;BME280;12758;47.890;11.694;2024-03-02T08:42:19;92716.22;;;21.92;nan
24610;BME280;12758;47.890;11.694;2024-03-02T08:44:47;92719.34;;;21.94;nan
24610;BME280;12758;47.890;11.694;2024-03-02T08:47:14;92724.84;;;21.94;nan
24610;BME280;12758;47.890;11.694;2024-03-02T08:49:41;92721.66;;;21.96;nan
24610;BME280;12758;47.890;11.694;2024-03-02T08:52:08;92722.47;;;21.96;nan
24610;BME280;12758;47.890;11.694;2024-03-02T08:54:35;92712.19;;;21.97;nan
24610;BME280;12758;47.890;11.694;2024-03-02T08:57:02;92712.19;;;21.97;nan
24610;BME280;12758;47.890;11.694;2024-03-02T08:59:29;92722.38;;;22.00;nan
24610;BME280;12758;47.890;11.694;2024-03-02T09:01:57;92731.00;;;22.02;nan
24610;BME280;12758;47.890;11.694;2024-03-02T09:04:24;92720.75;;;22.02;nan
24610;BME280;12758;47.890;11.694;2024-03-02T09:06:51;92722.72;;;22.02;nan
24610;BME280;12758;47.890;11.694;2024-03-02T09:09:17;92714.41;;;22.02;nan
24610;BME280;12758;47.890;11.694;2024-03-02T09:11:45;92722.28;;;22.03;nan
24610;BME280;12758;47.890;11.694;2024-03-02T09:14:12;92719.91;;;22.05;nan
24610;BME280;12758;47.890;11.694;2024-03-02T09:16:40;92715.91;;;22.06;nan
24610;BME280;12758;47.890;11.694;2024-03-02T09:19:08;92722.56;;;22.09;nan
24610;BME280;12758;47.890;11.694;2024-03-02T09:21:35;92726.88;;;22.10;nan
24610;BME280;12758;47.890;11.694;2024-03-02T09:24:02;92721.72;;;22.12;nan
24610;BME280;12758;47.890;11.694;2024-03-02T09:26:29;92722.03;;;22.14;nan
24610;BME280;12758;47.890;11.694;2024-03-02T09:28:56;92726.38;;;22.15;nan
24610;BME280;12758;47.890;11.694;2024-03-02T09:31:23;92719.66;;;22.16;nan
24610;BME280;12758;47.890;11.694;2024-03-02T09:33:49;92727.97;;;22.16;nan
24610;BME280;12758;47.890;11.694;2024-03-02T09:36:18;92726.38;;;22.15;nan
24610;BME280;12758;47.890;11.694;2024-03-02T09:38:45;92711.38;;;22.16;nan
24610;BME280;12758;47.890;11.694;2024-03-02T09:41:12;92717.22;;;22.18;nan
24610;BME280;12758;47.890;11.694;2024-03-02T09:43:39;92714.84;;;22.20;nan
24610;BME280;12758;47.890;11.694;2024-03-02T09:46:07;92710.84;;;22.21;nan
24610;BME280;12758;47.890;11.694;2024-03-02T09:48:35;92708.44;;;22.23;nan
24610;BME280;12758;47.890;11.694;2024-03-02T09:51:02;92707.22;;;22.24;nan
24610;BME280;12758;47.890;11.694;2024-03-02T09:53:33;92700.50;;;22.25;nan
24610;BME280;12758;47.890;11.694;2024-03-02T09:56:00;92698.94;;;22.24;nan
24610;BME280;12758;47.890;11.694;2024-03-02T09:58:27;92704.81;;;22.26;nan
24610;BME280;12758;47.890;11.694;2024-03-02T10:00:54;92707.59;;;22.26;nan
24610;BME280;12758;47.890;11.694;2024-03-02T10:03:20;92704.81;;;22.26;nan
24610;BME280;12758;47.890;11.694;2024-03-02T10:05:49;92703.59;;;22.27;nan
24610;BME280;12758;47.890;11.694;2024-03-02T10:08:17;92708.72;;;22.29;nan
24610;BME280;12758;47.890;11.694;2024-03-02T10:10:45;92703.19;;;22.29;nan
24610;BME280;12758;47.890;11.694;2024-03-02T10:13:12;92696.53;;;22.26;nan
24610;BME280;12758;47.890;11.694;2024-03-02T10:15:40;92701.19;;;22.29;nan
24610;BME280;12758;47.890;11.694;2024-03-02T10:18:08;92702.75;;;22.30;nan
24610;BME280;12758;47.890;11.694;2024-03-02T10:20:37;92704.31;;;22.31;nan
24610;BME280;12758;47.890;11.694;2024-03-02T10:23:10;92693.25;;;22.31;nan
24610;BME280;12758;47.890;11.694;2024-03-02T10:25:37;92696.78;;;22.32;nan
24610;BME280;12758;47.890;11.694;2024-03-02T10:28:05;92700.34;;;22.32;nan
24610;BME280;12758;47.890;11.694;2024-03-02T10:30:33;92690.81;;;22.33;nan
24610;BME280;12758;47.890;11.694;2024-03-02T10:33:00;92697.13;;;22.34;nan
24610;BME280;12758;47.890;11.694;2024-03-02T10:35:27;92697.13;;;22.34;nan
24610;BME280;12758;47.890;11.694;2024-03-02T10:37:54;92689.28;;;22.32;nan
24610;BME280;12758;47.890;11.694;2024-03-02T10:40:21;92692.41;;;22.35;nan
24610;BME280;12758;47.890;11.694;2024-03-02T10:42:49;92682.88;;;22.36;nan
24610;BME280;12758;47.890;11.694;2024-03-02T10:45:19;92685.66;;;22.36;nan
24610;BME280;12758;47.890;11.694;2024-03-02T10:47:46;92680.13;;;22.36;nan
24610;BME280;12758;47.890;11.694;2024-03-02T10:50:13;92674.59;;;22.36;nan
24610;BME280;12758;47.890;11.694;2024-03-02T10:52:40;92665.06;;;22.37;nan
24610;BME280;12758;47.890;11.694;2024-03-02T10:55:08;92656.78;;;22.37;nan
24610;BME280;12758;47.890;11.694;2024-03-02T10:57:42;92658.34;;;22.38;nan
24610;BME280;12758;47.890;11.694;2024-03-02T11:00:12;92652.03;;;22.37;nan
24610;BME280;12758;47.890;11.694;2024-03-02T11:02:50;92654.47;;;22.35;nan
24610;BME280;12758;47.890;11.694;2024-03-02T11:05:23;92648.84;;;22.39;nan
24610;BME280;12758;47.890;11.694;2024-03-02T11:07:52;92647.28;;;22.38;nan
24610;BME280;12758;47.890;11.694;2024-03-02T11:10:19;92647.28;;;22.38;nan
24610;BME280;12758;47.890;11.694;2024-03-02T11:12:51;92636.66;;;22.36;nan
24610;BME280;12758;47.890;11.694;2024-03-02T11:15:19;92639.00;;;22.38;nan
24610;BME280;12758;47.890;11.694;2024-03-02T11:17:50;92629.13;;;22.37;nan
24610;BME280;12758;47.890;11.694;2024-03-02T11:20:17;92629.91;;;22.37;nan
24610;BME280;12758;47.890;11.694;2024-03-02T11:22:45;92633.47;;;22.38;nan
24610;BME280;12758;47.890;11.694;2024-03-02T11:25:22;92616.06;;;22.37;nan
24610;BME280;12758;47.890;11.694;2024-03-02T11:27:59;92625.19;;;22.38;nan
24610;BME280;12758;47.890;11.694;2024-03-02T11:30:48;92621.19;;;22.39;nan
24610;BME280;12758;47.890;11.694;2024-03-02T11:33:25;92610.13;;;22.39;nan
24610;BME280;12758;47.890;11.694;2024-03-02T11:35:56;92610.91;;;22.39;nan
24610;BME280;12758;47.890;11.694;2024-03-02T11:38:28;92606.91;;;22.40;nan
24610;BME280;12758;47.890;11.694;2024-03-02T11:40:54;92605.72;;;22.41;nan
24610;BME280;12758;47.890;11.694;2024-03-02T11:43:21;92608.91;;;22.40;nan
24610;BME280;12758;47.890;11.694;2024-03-02T11:45:49;92601.38;;;22.40;nan
24610;BME280;12758;47.890;11.694;2024-03-02T11:48:24;92595.44;;;22.42;nan
24610;BME280;12758;47.890;11.694;2024-03-02T11:50:51;92587.13;;;22.42;nan
24610;BME280;12758;47.890;11.694;2024-03-02T11:53:19;92581.59;;;22.42;nan
24610;BME280;12758;47.890;11.694;2024-03-02T11:55:46;92600.94;;;22.58;nan
24610;BME280;12758;47.890;11.694;2024-03-02T11:58:13;92581.19;;;22.72;nan
24610;BME280;12758;47.890;11.694;2024-03-02T12:00:39;92579.78;;;22.81;nan
24610;BME280;12758;47.890;11.694;2024-03-02T12:03:07;92574.03;;;22.88;nan
24610;BME280;12758;47.890;11.694;2024-03-02T12:05:36;92561.94;;;22.98;nan
24610;BME280;12758;47.890;11.694;2024-03-02T12:08:04;92562.94;;;23.04;nan
24610;BME280;12758;47.890;11.694;2024-03-02T12:10:32;92567.59;;;23.07;nan
24610;BME280;12758;47.890;11.694;2024-03-02T12:12:59;92552.88;;;23.10;nan
24610;BME280;12758;47.890;11.694;2024-03-02T12:15:28;92550.47;;;23.12;nan
24610;BME280;12758;47.890;11.694;2024-03-02T12:17:55;92559.09;;;23.14;nan
24610;BME280;12758;47.890;11.694;2024-03-02T12:20:22;92559.44;;;23.16;nan
24610;BME280;12758;47.890;11.694;2024-03-02T12:22:52;92560.09;;;23.20;nan
24610;BME280;12758;47.890;11.694;2024-03-02T12:25:19;92550.91;;;23.23;nan
24610;BME280;12758;47.890;11.694;2024-03-02T12:27:46;92547.03;;;23.21;nan
24610;BME280;12758;47.890;11.694;2024-03-02T12:30:13;92544.72;;;23.19;nan
24610;BME280;12758;47.890;11.694;2024-03-02T12:32:40;92536.41;;;23.19;nan
24610;BME280;12758;47.890;11.694;2024-03-02T12:35:08;92532.09;;;23.18;nan
24610;BME280;12758;47.890;11.694;2024-03-02T12:37:42;92528.75;;;23.23;nan
24610;BME280;12758;47.890;11.694;2024-03-02T12:40:11;92529.75;;;23.30;nan
24610;BME280;12758;47.890;11.694;2024-03-02T12:42:38;92527.78;;;23.43;nan
24610;BME280;12758;47.890;11.694;2024-03-02T12:45:05;92521.56;;;23.26;nan
24610;BME280;12758;47.890;11.694;2024-03-02T12:47:33;92515.50;;;23.95;nan
24610;BME280;12758;47.890;11.694;2024-03-02T12:54:53;92512.25;;;23.97;nan
24610;BME280;12758;47.890;11.694;2024-03-02T13:43:33;92462.25;;;24.00;70.33
24610;BME280;12758;47.890;11.694;2024-03-02T13:46:01;92453.38;;;24.05;70.64
24610;BME280;12758;47.890;11.694;2024-03-02T13:48:27;92458.00;;;24.08;70.52
24610;BME280;12758;47.890;11.694;2024-03-02T13:54:03;92458.00;;;24.08;69.91
24610;BME280;12758;47.890;11.694;2024-03-02T13:57:45;92454.44;;;24.21;69.91
24610;BME280;12758;47.890;11.694;2024-03-02T14:00:46;92455.31;;;24.17;69.58
24610;BME280;12758;47.890;11.694;2024-03-02T14:03:12;92456.03;;;24.31;70.11
24610;BME280;12758;47.890;11.694;2024-03-02T14:05:38;92451.84;;;24.26;69.27
24610;BME280;12758;47.890;11.694;2024-03-02T14:08:05;92450.44;;;24.22;69.55
24610;BME280;12758;47.890;11.694;2024-03-02T14:10:31;92447.19;;;24.23;69.70
24610;BME280;12758;47.890;11.694;2024-03-02T14:12:57;92437.78;;;24.21;69.73
24610;BME280;12758;47.890;11.694;2024-03-02T14:15:23;92439.91;;;24.16;70.05
24610;BME280;12758;47.890;11.694;2024-03-02T14:17:49;92438.69;;;24.17;nan
24610;BME280;12758;47.890;11.694;2024-03-02T14:20:16;92441.28;;;24.34;nan
24610;BME280;12758;47.890;11.694;2024-03-02T14:22:48;56294.50;;;29.85;85.40
24610;BME280;12758;47.890;11.694;2024-03-02T14:25:14;67365.78;;;29.85;85.15
24610;BME280;12758;47.890;11.694;2024-03-02T14:37:25;92422.69;;;24.22;nan
24610;BME280;12758;47.890;11.694;2024-03-02T14:39:51;92414.69;;;24.24;nan
24610;BME280;12758;47.890;11.694;2024-03-02T14:42:17;92417.44;;;24.24;nan
24610;BME280;12758;47.890;11.694;2024-03-02T14:44:43;92409.94;;;24.24;nan
24610;BME280;12758;47.890;11.694;2024-03-02T14:49:35;92411.72;;;24.18;nan
24610;BME280;12758;47.890;11.694;2024-03-02T14:52:05;92412.16;;;24.16;nan
24610;BME280;12758;47.890;11.694;2024-03-02T14:54:31;92418.94;;;24.15;nan
24610;BME280;12758;47.890;11.694;2024-03-02T14:56:57;92411.19;;;24.10;nan
24610;BME280;12758;47.890;11.694;2024-03-02T14:59:23;92415.84;;;24.13;nan
24610;BME280;12758;47.890;11.694;2024-03-02T15:01:49;92415.84;;;24.13;nan
24610;BME280;12758;47.890;11.694;2024-03-02T15:04:15;92404.31;;;24.15;nan
24610;BME280;12758;47.890;11.694;2024-03-02T15:06:42;92410.28;;;24.13;nan
24610;BME280;12758;47.890;11.694;2024-03-02T15:09:08;92400.78;;;24.14;nan
24610;BME280;12758;47.890;11.694;2024-03-02T15:11:34;92400.34;;;24.03;nan
24610;BME280;12758;47.890;11.694;2024-03-02T15:14:01;92403.72;;;23.98;nan
24610;BME280;12758;47.890;11.694;2024-03-02T15:16:27;92400.16;;;23.98;nan
24610;BME280;12758;47.890;11.694;2024-03-02T15:18:54;92399.84;;;23.96;nan
24610;BME280;12758;47.890;11.694;2024-03-02T15:21:20;92392.72;;;23.94;nan
24610;BME280;12758;47.890;11.694;2024-03-02T15:23:46;92395.97;;;23.93;nan
24610;BME280;12758;47.890;11.694;2024-03-02T15:26:12;92396.59;;;23.97;nan
24610;BME280;12758;47.890;11.694;2024-03-02T15:43:16;92387.56;;;23.84;nan
24610;BME280;12758;47.890;11.694;2024-03-02T15:45:42;92376.97;;;23.69;nan
24610;BME280;12758;47.890;11.694;2024-03-02T15:48:08;92388.94;;;23.66;nan
24610;BME280;12758;47.890;11.694;2024-03-02T15:50:34;92379.47;;;23.89;nan
24610;BME280;12758;47.890;11.694;2024-03-02T15:53:02;92386.41;;;23.94;nan
24610;BME280;12758;47.890;11.694;2024-03-02T15:55:31;92386.75;;;23.96;nan
24610;BME280;12758;47.890;11.694;2024-03-02T15:57:57;92382.19;;;24.02;nan
24610;BME280;12758;47.890;11.694;2024-03-02T16:00:24;92379.34;;;23.93;nan
24610;BME280;12758;47.890;11.694;2024-03-02T16:02:50;92392.75;;;24.16;nan
24610;BME280;12758;47.890;11.694;2024-03-02T16:05:32;114717.25;;;170.71;nan
24610;BME280;12758;47.890;11.694;2024-03-02T16:07:58;114716.69;;;170.59;nan
24610;BME280;12758;47.890;11.694;2024-03-02T16:10:24;114707.00;;;170.78;nan
24610;BME280;12758;47.890;11.694;2024-03-02T16:12:50;114685.03;;;171.06;nan
24610;BME280;12758;47.890;11.694;2024-03-02T16:15:17;114675.25;;;171.18;nan
24610;BME280;12758;47.890;11.694;2024-03-02T17:46:52;92382.16;;;23.67;nan
24610;BME280;12758;47.890;11.694;2024-03-02T17:49:18;92390.13;;;23.65;nan
24610;BME280;12758;47.890;11.694;2024-03-02T17:51:44;92389.34;;;23.78;nan
24610;BME280;12758;47.890;11.694;2024-03-02T17:54:10;92394.03;;;23.55;nan
24610;BME280;12758;47.890;11.694;2024-03-02T17:56:37;92392.75;;;23.47;nan
24610;BME280;12758;47.890;11.694;2024-03-02T17:59:03;92390.41;;;23.45;nan
24610;BME280;12758;47.890;11.694;2024-03-02T18:01:29;92392.06;;;23.43;nan
24610;BME280;12758;47.890;11.694;2024-03-02T18:03:56;92400.06;;;23.41;nan
24610;BME280;12758;47.890;11.694;2024-03-02T18:06:23;92395.41;;;23.38;nan
24610;BME280;12758;47.890;11.694;2024-03-02T18:08:49;92396.63;;;23.37;nan
24610;BME280;12758;47.890;11.694;2024-03-02T18:11:16;92400.19;;;23.37;nan
24610;BME280;12758;47.890;11.694;2024-03-02T18:13:43;92402.94;;;23.37;nan
24610;BME280;12758;47.890;11.694;2024-03-02T18:16:12;92388.00;;;23.35;nan
24610;BME280;12758;47.890;11.694;2024-03-02T18:18:39;92386.75;;;23.36;nan
24610;BME280;12758;47.890;11.694;2024-03-02T18:21:06;92383.66;;;23.34;nan
24610;BME280;12758;47.890;11.694;2024-03-02T18:23:32;92378.13;;;23.34;nan
24610;BME280;12758;47.890;11.694;2024-03-02T18:25:58;92379.69;;;23.35;nan
24610;BME280;12758;47.890;11.694;2024-03-02T18:28:24;92381.22;;;23.36;nan
24610;BME280;12758;47.890;11.694;2024-03-02T18:30:51;92380.47;;;23.35;nan
24610;BME280;12758;47.890;11.694;2024-03-02T18:33:17;92386.44;;;23.34;nan
24610;BME280;12758;47.890;11.694;2024-03-02T18:35:43;92383.66;;;23.34;nan
24610;BME280;12758;47.890;11.694;2024-03-02T18:38:10;92391.66;;;23.32;nan
24610;BME280;12758;47.890;11.694;2024-03-02T18:40:36;92391.66;;;23.32;nan
24610;BME280;12758;47.890;11.694;2024-03-02T18:43:03;92396.31;;;23.35;nan
24610;BME280;12758;47.890;11.694;2024-03-02T18:45:29;92387.22;;;23.34;nan
24610;BME280;12758;47.890;11.694;2024-03-02T18:47:56;92386.13;;;23.32;nan
24610;BME280;12758;47.890;11.694;2024-03-02T18:50:22;92382.13;;;23.33;nan
24610;BME280;12758;47.890;11.694;2024-03-02T18:52:48;92393.19;;;23.33;nan
24610;BME280;12758;47.890;11.694;2024-03-02T18:55:15;92371.03;;;23.33;nan
24610;BME280;12758;47.890;11.694;2024-03-02T18:57:42;92381.81;;;23.31;nan
24610;BME280;12758;47.890;11.694;2024-03-02T19:00:09;92379.03;;;23.31;nan
24610;BME280;12758;47.890;11.694;2024-03-02T19:02:36;92379.03;;;23.31;nan
24610;BME280;12758;47.890;11.694;2024-03-02T19:05:04;92384.56;;;23.31;nan
24610;BME280;12758;47.890;11.694;2024-03-02T19:07:31;92380.56;;;23.32;nan
24610;BME280;12758;47.890;11.694;2024-03-02T19:09:57;92368.84;;;23.28;nan
24610;BME280;12758;47.890;11.694;2024-03-02T19:12:24;92366.41;;;23.30;nan
24610;BME280;12758;47.890;11.694;2024-03-02T19:14:50;92366.41;;;23.30;nan
24610;BME280;12758;47.890;11.694;2024-03-02T19:17:17;92371.63;;;23.28;nan
24610;BME280;12758;47.890;11.694;2024-03-02T19:19:43;92376.69;;;23.29;nan
24610;BME280;12758;47.890;11.694;2024-03-02T19:22:09;92370.81;;;23.27;nan
24610;BME280;12758;47.890;11.694;2024-03-02T19:24:36;92374.38;;;23.28;nan
24610;BME280;12758;47.890;11.694;2024-03-02T19:27:02;92379.13;;;23.27;nan
24610;BME280;12758;47.890;11.694;2024-03-02T19:29:29;92382.69;;;23.28;nan
24610;BME280;12758;47.890;11.694;2024-03-02T19:31:56;92371.28;;;23.25;nan
24610;BME280;12758;47.890;11.694;2024-03-02T19:34:23;92381.13;;;23.27;nan
24610;BME280;12758;47.890;11.694;2024-03-02T19:36:49;92370.38;;;23.29;nan
24610;BME280;12758;47.890;11.694;2024-03-02T19:39:15;92371.94;;;23.30;nan